sensor_id;sensor_type;location;lat;lon;timestamp;P1;durP1;ratioP1;P2;durP2;ratioP2
71606;SDS011;60641;53.556;9.914;2023-03-14T00:01:23;8.10;;;1.40;;
71606;SDS011;60641;53.556;9.914;2023-03-14T00:03:50;5.90;;;1.70;;
71606;SDS011;60641;53.556;9.914;2023-03-14T00:06:17;6.90;;;1.80;;
71606;SDS011;60641;53.556;9.914;2023-03-14T00:08:44;5.30;;;1.80;;
71606;SDS011;60641;53.556;9.914;2023-03-14T00:11:12;5.40;;;1.30;;
71606;SDS011;60641;53.556;9.914;2023-03-14T00:13:40;9.60;;;1.80;;
71606;SDS011;60641;53.556;9.914;2023-03-14T00:16:10;7.90;;;2.10;;
71606;SDS011;60641;53.556;9.914;2023-03-14T00:18:38;10.30;;;1.60;;
71606;SDS011;60641;53.556;9.914;2023-03-14T00:21:05;6.40;;;1.40;;
71606;SDS011;60641;53.556;9.914;2023-03-14T00:23:34;6.90;;;1.40;;
71606;SDS011;60641;53.556;9.914;2023-03-14T00:26:03;5.30;;;1.20;;
71606;SDS011;60641;53.556;9.914;2023-03-14T00:28:34;5.80;;;1.40;;
71606;SDS011;60641;53.556;9.914;2023-03-14T00:31:07;6.90;;;1.60;;
71606;SDS011;60641;53.556;9.914;2023-03-14T00:33:35;7.00;;;1.30;;
71606;SDS011;60641;53.556;9.914;2023-03-14T00:36:02;5.70;;;1.20;;
71606;SDS011;60641;53.556;9.914;2023-03-14T00:38:31;10.10;;;1.60;;
71606;SDS011;60641;53.556;9.914;2023-03-14T00:40:58;8.90;;;1.50;;
71606;SDS011;60641;53.556;9.914;2023-03-14T00:43:25;6.70;;;1.40;;
71606;SDS011;60641;53.556;9.914;2023-03-14T00:45:52;7.30;;;1.50;;
71606;SDS011;60641;53.556;9.914;2023-03-14T00:48:19;5.90;;;1.20;;
71606;SDS011;60641;53.556;9.914;2023-03-14T00:50:46;9.10;;;1.50;;
71606;SDS011;60641;53.556;9.914;2023-03-14T00:53:13;5.80;;;1.30;;
71606;SDS011;60641;53.556;9.914;2023-03-14T00:55:40;8.80;;;1.40;;
71606;SDS011;60641;53.556;9.914;2023-03-14T00:58:08;6.40;;;1.30;;
71606;SDS011;60641;53.556;9.914;2023-03-14T01:00:39;6.90;;;1.10;;
71606;SDS011;60641;53.556;9.914;2023-03-14T01:03:06;7.80;;;1.40;;
71606;SDS011;60641;53.556;9.914;2023-03-14T01:05:33;6.90;;;1.50;;
71606;SDS011;60641;53.556;9.914;2023-03-14T01:08:00;10.90;;;1.80;;
71606;SDS011;60641;53.556;9.914;2023-03-14T01:10:27;9.10;;;1.50;;
71606;SDS011;60641;53.556;9.914;2023-03-14T01:12:53;9.00;;;1.40;;
71606;SDS011;60641;53.556;9.914;2023-03-14T01:15:20;5.90;;;1.10;;
71606;SDS011;60641;53.556;9.914;2023-03-14T01:17:46;8.60;;;1.30;;
71606;SDS011;60641;53.556;9.914;2023-03-14T01:20:13;7.20;;;1.40;;
71606;SDS011;60641;53.556;9.914;2023-03-14T01:22:41;8.10;;;1.40;;
71606;SDS011;60641;53.556;9.914;2023-03-14T01:25:12;8.90;;;2.00;;
71606;SDS011;60641;53.556;9.914;2023-03-14T01:27:39;6.70;;;1.30;;
71606;SDS011;60641;53.556;9.914;2023-03-14T01:30:06;8.50;;;1.50;;
71606;SDS011;60641;53.556;9.914;2023-03-14T01:32:34;7.50;;;1.40;;
71606;SDS011;60641;53.556;9.914;2023-03-14T01:35:01;6.70;;;1.50;;
71606;SDS011;60641;53.556;9.914;2023-03-14T01:37:27;9.80;;;1.40;;
71606;SDS011;60641;53.556;9.914;2023-03-14T01:39:54;9.70;;;1.30;;
71606;SDS011;60641;53.556;9.914;2023-03-14T01:42:20;7.50;;;1.30;;
71606;SDS011;60641;53.556;9.914;2023-03-14T01:44:48;8.00;;;1.90;;
71606;SDS011;60641;53.556;9.914;2023-03-14T01:47:22;7.20;;;1.30;;
71606;SDS011;60641;53.556;9.914;2023-03-14T01:52:32;7.60;;;1.30;;
71606;SDS011;60641;53.556;9.914;2023-03-14T01:55:15;4.40;;;1.20;;
71606;SDS011;60641;53.556;9.914;2023-03-14T01:57:53;7.40;;;1.60;;
71606;SDS011;60641;53.556;9.914;2023-03-14T02:00:23;7.30;;;1.40;;
71606;SDS011;60641;53.556;9.914;2023-03-14T02:03:01;10.80;;;1.90;;
71606;SDS011;60641;53.556;9.914;2023-03-14T02:05:30;5.20;;;1.40;;
71606;SDS011;60641;53.556;9.914;2023-03-14T02:07:59;5.60;;;1.40;;
71606;SDS011;60641;53.556;9.914;2023-03-14T02:10:27;8.70;;;1.60;;
71606;SDS011;60641;53.556;9.914;2023-03-14T02:12:55;9.30;;;1.50;;
71606;SDS011;60641;53.556;9.914;2023-03-14T02:15:23;9.40;;;1.60;;
71606;SDS011;60641;53.556;9.914;2023-03-14T02:17:49;7.40;;;1.40;;
71606;SDS011;60641;53.556;9.914;2023-03-14T02:23:31;6.20;;;1.60;;
71606;SDS011;60641;53.556;9.914;2023-03-14T02:26:12;6.90;;;1.50;;
71606;SDS011;60641;53.556;9.914;2023-03-14T02:28:52;10.20;;;1.70;;
71606;SDS011;60641;53.556;9.914;2023-03-14T02:31:19;7.30;;;1.30;;
71606;SDS011;60641;53.556;9.914;2023-03-14T02:33:47;7.70;;;1.80;;
71606;SDS011;60641;53.556;9.914;2023-03-14T02:36:14;10.00;;;1.60;;
71606;SDS011;60641;53.556;9.914;2023-03-14T02:41:14;5.70;;;1.50;;
71606;SDS011;60641;53.556;9.914;2023-03-14T02:43:40;8.90;;;1.60;;
71606;SDS011;60641;53.556;9.914;2023-03-14T02:46:07;7.20;;;1.40;;
71606;SDS011;60641;53.556;9.914;2023-03-14T02:48:39;5.50;;;1.60;;
71606;SDS011;60641;53.556;9.914;2023-03-14T02:51:08;7.20;;;1.60;;
71606;SDS011;60641;53.556;9.914;2023-03-14T02:53:36;7.10;;;1.50;;
71606;SDS011;60641;53.556;9.914;2023-03-14T02:56:03;8.80;;;1.50;;
71606;SDS011;60641;53.556;9.914;2023-03-14T02:58:30;8.80;;;1.80;;
71606;SDS011;60641;53.556;9.914;2023-03-14T03:00:56;4.80;;;1.50;;
71606;SDS011;60641;53.556;9.914;2023-03-14T03:03:23;6.80;;;1.60;;
71606;SDS011;60641;53.556;9.914;2023-03-14T03:05:53;9.40;;;1.50;;
71606;SDS011;60641;53.556;9.914;2023-03-14T03:08:21;6.90;;;1.50;;
71606;SDS011;60641;53.556;9.914;2023-03-14T03:10:48;8.70;;;1.90;;
71606;SDS011;60641;53.556;9.914;2023-03-14T03:13:15;5.70;;;1.70;;
71606;SDS011;60641;53.556;9.914;2023-03-14T03:15:42;7.80;;;1.50;;
71606;SDS011;60641;53.556;9.914;2023-03-14T03:18:09;9.90;;;2.30;;
71606;SDS011;60641;53.556;9.914;2023-03-14T03:20:35;5.70;;;1.40;;
71606;SDS011;60641;53.556;9.914;2023-03-14T03:23:02;7.60;;;1.40;;
71606;SDS011;60641;53.556;9.914;2023-03-14T03:25:28;7.90;;;1.40;;
71606;SDS011;60641;53.556;9.914;2023-03-14T03:27:55;8.00;;;1.80;;
71606;SDS011;60641;53.556;9.914;2023-03-14T03:30:22;8.30;;;1.40;;
71606;SDS011;60641;53.556;9.914;2023-03-14T03:32:48;6.70;;;1.40;;
71606;SDS011;60641;53.556;9.914;2023-03-14T03:35:15;7.50;;;1.80;;
71606;SDS011;60641;53.556;9.914;2023-03-14T03:37:41;6.80;;;1.60;;
71606;SDS011;60641;53.556;9.914;2023-03-14T03:40:08;8.20;;;1.30;;
71606;SDS011;60641;53.556;9.914;2023-03-14T03:42:35;9.50;;;2.20;;
71606;SDS011;60641;53.556;9.914;2023-03-14T03:45:02;7.80;;;1.20;;
71606;SDS011;60641;53.556;9.914;2023-03-14T03:47:30;8.50;;;1.60;;
71606;SDS011;60641;53.556;9.914;2023-03-14T03:49:57;8.60;;;1.60;;
71606;SDS011;60641;53.556;9.914;2023-03-14T03:52:24;7.00;;;1.30;;
71606;SDS011;60641;53.556;9.914;2023-03-14T03:54:50;7.80;;;1.40;;
71606;SDS011;60641;53.556;9.914;2023-03-14T03:57:16;6.60;;;1.40;;
71606;SDS011;60641;53.556;9.914;2023-03-14T03:59:43;7.20;;;1.60;;
71606;SDS011;60641;53.556;9.914;2023-03-14T04:02:09;5.80;;;1.50;;
71606;SDS011;60641;53.556;9.914;2023-03-14T04:04:36;5.90;;;1.60;;
71606;SDS011;60641;53.556;9.914;2023-03-14T04:07:04;8.50;;;1.60;;
71606;SDS011;60641;53.556;9.914;2023-03-14T04:09:31;6.70;;;1.60;;
71606;SDS011;60641;53.556;9.914;2023-03-14T04:11:57;6.90;;;1.70;;
71606;SDS011;60641;53.556;9.914;2023-03-14T04:14:24;7.50;;;1.50;;
71606;SDS011;60641;53.556;9.914;2023-03-14T04:16:50;7.80;;;1.60;;
71606;SDS011;60641;53.556;9.914;2023-03-14T04:19:17;7.80;;;1.50;;
71606;SDS011;60641;53.556;9.914;2023-03-14T04:21:43;7.00;;;1.70;;
71606;SDS011;60641;53.556;9.914;2023-03-14T04:24:13;6.10;;;1.80;;
71606;SDS011;60641;53.556;9.914;2023-03-14T04:26:39;7.30;;;1.80;;
71606;SDS011;60641;53.556;9.914;2023-03-14T04:29:06;8.50;;;1.90;;
71606;SDS011;60641;53.556;9.914;2023-03-14T04:31:32;8.90;;;1.80;;
71606;SDS011;60641;53.556;9.914;2023-03-14T04:33:59;8.30;;;1.80;;
71606;SDS011;60641;53.556;9.914;2023-03-14T04:36:25;10.80;;;1.70;;
71606;SDS011;60641;53.556;9.914;2023-03-14T04:38:51;7.60;;;1.90;;
71606;SDS011;60641;53.556;9.914;2023-03-14T04:41:18;6.70;;;2.00;;
71606;SDS011;60641;53.556;9.914;2023-03-14T04:43:44;8.20;;;1.60;;
71606;SDS011;60641;53.556;9.914;2023-03-14T04:46:11;9.00;;;1.90;;
71606;SDS011;60641;53.556;9.914;2023-03-14T04:48:37;6.40;;;1.60;;
71606;SDS011;60641;53.556;9.914;2023-03-14T04:51:04;7.00;;;1.70;;
71606;SDS011;60641;53.556;9.914;2023-03-14T04:53:31;7.50;;;1.60;;
71606;SDS011;60641;53.556;9.914;2023-03-14T04:55:57;6.20;;;1.40;;
71606;SDS011;60641;53.556;9.914;2023-03-14T04:58:24;6.60;;;1.40;;
71606;SDS011;60641;53.556;9.914;2023-03-14T05:00:51;7.50;;;1.40;;
71606;SDS011;60641;53.556;9.914;2023-03-14T05:03:18;9.10;;;1.40;;
71606;SDS011;60641;53.556;9.914;2023-03-14T05:05:45;10.20;;;1.40;;
71606;SDS011;60641;53.556;9.914;2023-03-14T05:08:12;7.50;;;1.60;;
71606;SDS011;60641;53.556;9.914;2023-03-14T05:10:38;5.90;;;1.00;;
71606;SDS011;60641;53.556;9.914;2023-03-14T05:13:05;8.40;;;1.40;;
71606;SDS011;60641;53.556;9.914;2023-03-14T05:15:31;5.20;;;0.90;;
71606;SDS011;60641;53.556;9.914;2023-03-14T05:17:58;5.10;;;1.00;;
71606;SDS011;60641;53.556;9.914;2023-03-14T05:20:24;4.80;;;1.10;;
71606;SDS011;60641;53.556;9.914;2023-03-14T05:22:51;7.00;;;1.30;;
71606;SDS011;60641;53.556;9.914;2023-03-14T05:25:17;3.30;;;1.00;;
71606;SDS011;60641;53.556;9.914;2023-03-14T05:27:44;5.50;;;1.20;;
71606;SDS011;60641;53.556;9.914;2023-03-14T05:30:10;4.90;;;1.40;;
71606;SDS011;60641;53.556;9.914;2023-03-14T05:32:37;3.70;;;1.10;;
71606;SDS011;60641;53.556;9.914;2023-03-14T05:35:04;5.80;;;1.30;;
71606;SDS011;60641;53.556;9.914;2023-03-14T05:37:30;6.70;;;1.50;;
71606;SDS011;60641;53.556;9.914;2023-03-14T05:39:57;5.40;;;1.20;;
71606;SDS011;60641;53.556;9.914;2023-03-14T05:42:23;7.30;;;1.40;;
71606;SDS011;60641;53.556;9.914;2023-03-14T05:44:50;8.00;;;1.50;;
71606;SDS011;60641;53.556;9.914;2023-03-14T05:47:16;5.80;;;1.40;;
71606;SDS011;60641;53.556;9.914;2023-03-14T05:49:42;4.30;;;1.60;;
71606;SDS011;60641;53.556;9.914;2023-03-14T05:52:09;7.10;;;1.80;;
71606;SDS011;60641;53.556;9.914;2023-03-14T05:54:35;6.40;;;1.90;;
71606;SDS011;60641;53.556;9.914;2023-03-14T05:57:02;8.40;;;1.90;;
71606;SDS011;60641;53.556;9.914;2023-03-14T05:59:28;5.30;;;1.40;;
71606;SDS011;60641;53.556;9.914;2023-03-14T06:01:55;7.20;;;2.00;;
71606;SDS011;60641;53.556;9.914;2023-03-14T06:04:21;9.80;;;2.30;;
71606;SDS011;60641;53.556;9.914;2023-03-14T06:06:48;7.50;;;2.20;;
71606;SDS011;60641;53.556;9.914;2023-03-14T06:09:14;7.20;;;2.10;;
71606;SDS011;60641;53.556;9.914;2023-03-14T06:11:41;9.90;;;2.40;;
71606;SDS011;60641;53.556;9.914;2023-03-14T06:14:07;7.20;;;2.30;;
71606;SDS011;60641;53.556;9.914;2023-03-14T06:16:34;8.80;;;2.10;;
71606;SDS011;60641;53.556;9.914;2023-03-14T06:19:00;7.70;;;2.20;;
71606;SDS011;60641;53.556;9.914;2023-03-14T06:21:27;10.30;;;2.30;;
71606;SDS011;60641;53.556;9.914;2023-03-14T06:23:53;8.00;;;1.80;;
71606;SDS011;60641;53.556;9.914;2023-03-14T06:26:22;6.00;;;1.90;;
71606;SDS011;60641;53.556;9.914;2023-03-14T06:28:49;7.30;;;1.80;;
71606;SDS011;60641;53.556;9.914;2023-03-14T06:31:17;5.40;;;1.70;;
71606;SDS011;60641;53.556;9.914;2023-03-14T06:33:43;9.70;;;2.00;;
71606;SDS011;60641;53.556;9.914;2023-03-14T06:36:10;10.00;;;2.10;;
71606;SDS011;60641;53.556;9.914;2023-03-14T06:38:36;5.50;;;1.80;;
71606;SDS011;60641;53.556;9.914;2023-03-14T06:41:03;7.60;;;2.00;;
71606;SDS011;60641;53.556;9.914;2023-03-14T06:43:31;5.70;;;1.70;;
71606;SDS011;60641;53.556;9.914;2023-03-14T06:45:57;6.90;;;2.00;;
71606;SDS011;60641;53.556;9.914;2023-03-14T06:48:24;7.50;;;1.90;;
71606;SDS011;60641;53.556;9.914;2023-03-14T06:50:50;7.10;;;2.10;;
71606;SDS011;60641;53.556;9.914;2023-03-14T06:53:17;8.70;;;1.90;;
71606;SDS011;60641;53.556;9.914;2023-03-14T06:55:43;8.40;;;1.70;;
71606;SDS011;60641;53.556;9.914;2023-03-14T06:58:11;7.50;;;1.60;;
71606;SDS011;60641;53.556;9.914;2023-03-14T07:00:38;6.80;;;1.40;;
71606;SDS011;60641;53.556;9.914;2023-03-14T07:03:04;6.30;;;1.20;;
71606;SDS011;60641;53.556;9.914;2023-03-14T07:05:31;6.70;;;1.20;;
71606;SDS011;60641;53.556;9.914;2023-03-14T07:07:57;5.40;;;1.10;;
71606;SDS011;60641;53.556;9.914;2023-03-14T07:10:24;8.20;;;1.20;;
71606;SDS011;60641;53.556;9.914;2023-03-14T07:12:51;6.30;;;1.00;;
71606;SDS011;60641;53.556;9.914;2023-03-14T07:15:19;7.30;;;1.10;;
71606;SDS011;60641;53.556;9.914;2023-03-14T07:17:46;5.10;;;1.00;;
71606;SDS011;60641;53.556;9.914;2023-03-14T07:20:16;5.20;;;0.80;;
71606;SDS011;60641;53.556;9.914;2023-03-14T07:22:43;6.20;;;1.10;;
71606;SDS011;60641;53.556;9.914;2023-03-14T07:25:09;5.90;;;0.70;;
71606;SDS011;60641;53.556;9.914;2023-03-14T07:27:38;6.00;;;0.90;;
71606;SDS011;60641;53.556;9.914;2023-03-14T07:30:05;5.50;;;0.90;;
71606;SDS011;60641;53.556;9.914;2023-03-14T07:32:32;4.60;;;0.90;;
71606;SDS011;60641;53.556;9.914;2023-03-14T07:34:58;7.10;;;1.10;;
71606;SDS011;60641;53.556;9.914;2023-03-14T07:37:25;7.30;;;1.20;;
71606;SDS011;60641;53.556;9.914;2023-03-14T07:39:51;9.20;;;1.50;;
71606;SDS011;60641;53.556;9.914;2023-03-14T07:42:18;6.50;;;1.20;;
71606;SDS011;60641;53.556;9.914;2023-03-14T07:44:44;11.20;;;1.70;;
71606;SDS011;60641;53.556;9.914;2023-03-14T07:47:10;5.20;;;1.00;;
71606;SDS011;60641;53.556;9.914;2023-03-14T07:49:37;5.90;;;1.30;;
71606;SDS011;60641;53.556;9.914;2023-03-14T07:52:03;5.00;;;0.90;;
71606;SDS011;60641;53.556;9.914;2023-03-14T07:54:30;5.50;;;0.80;;
71606;SDS011;60641;53.556;9.914;2023-03-14T07:56:56;3.80;;;0.80;;
71606;SDS011;60641;53.556;9.914;2023-03-14T07:59:27;6.40;;;1.00;;
71606;SDS011;60641;53.556;9.914;2023-03-14T08:01:53;4.10;;;0.60;;
71606;SDS011;60641;53.556;9.914;2023-03-14T08:04:20;4.50;;;0.70;;
71606;SDS011;60641;53.556;9.914;2023-03-14T08:06:46;3.50;;;0.60;;
71606;SDS011;60641;53.556;9.914;2023-03-14T08:09:13;4.30;;;0.70;;
71606;SDS011;60641;53.556;9.914;2023-03-14T08:11:40;2.80;;;0.50;;
71606;SDS011;60641;53.556;9.914;2023-03-14T08:14:06;4.10;;;0.60;;
71606;SDS011;60641;53.556;9.914;2023-03-14T08:16:32;5.10;;;0.70;;
71606;SDS011;60641;53.556;9.914;2023-03-14T08:18:59;5.10;;;0.70;;
71606;SDS011;60641;53.556;9.914;2023-03-14T08:21:25;8.00;;;0.80;;
71606;SDS011;60641;53.556;9.914;2023-03-14T08:23:52;4.60;;;0.80;;
71606;SDS011;60641;53.556;9.914;2023-03-14T08:26:18;4.10;;;0.80;;
71606;SDS011;60641;53.556;9.914;2023-03-14T08:28:45;5.30;;;0.80;;
71606;SDS011;60641;53.556;9.914;2023-03-14T08:31:12;5.60;;;0.70;;
71606;SDS011;60641;53.556;9.914;2023-03-14T08:33:38;4.20;;;0.80;;
71606;SDS011;60641;53.556;9.914;2023-03-14T08:36:04;6.00;;;0.90;;
71606;SDS011;60641;53.556;9.914;2023-03-14T08:38:31;6.80;;;1.00;;
71606;SDS011;60641;53.556;9.914;2023-03-14T08:40:58;6.60;;;1.00;;
71606;SDS011;60641;53.556;9.914;2023-03-14T08:43:26;4.20;;;1.00;;
71606;SDS011;60641;53.556;9.914;2023-03-14T08:45:53;6.80;;;1.00;;
71606;SDS011;60641;53.556;9.914;2023-03-14T08:48:23;4.80;;;1.00;;
71606;SDS011;60641;53.556;9.914;2023-03-14T08:50:49;4.60;;;0.90;;
71606;SDS011;60641;53.556;9.914;2023-03-14T08:53:16;6.70;;;1.30;;
71606;SDS011;60641;53.556;9.914;2023-03-14T08:55:42;8.10;;;1.40;;
71606;SDS011;60641;53.556;9.914;2023-03-14T08:58:08;7.00;;;1.50;;
71606;SDS011;60641;53.556;9.914;2023-03-14T09:00:35;7.10;;;1.30;;
71606;SDS011;60641;53.556;9.914;2023-03-14T09:03:01;6.60;;;1.40;;
71606;SDS011;60641;53.556;9.914;2023-03-14T09:05:28;8.60;;;1.60;;
71606;SDS011;60641;53.556;9.914;2023-03-14T09:07:54;6.50;;;1.50;;
71606;SDS011;60641;53.556;9.914;2023-03-14T09:10:21;5.40;;;1.20;;
71606;SDS011;60641;53.556;9.914;2023-03-14T09:12:47;5.30;;;1.50;;
71606;SDS011;60641;53.556;9.914;2023-03-14T09:15:14;7.70;;;1.40;;
71606;SDS011;60641;53.556;9.914;2023-03-14T09:17:42;5.90;;;1.30;;
71606;SDS011;60641;53.556;9.914;2023-03-14T09:20:09;6.40;;;1.20;;
71606;SDS011;60641;53.556;9.914;2023-03-14T09:22:36;8.20;;;1.50;;
71606;SDS011;60641;53.556;9.914;2023-03-14T09:25:03;5.60;;;1.30;;
71606;SDS011;60641;53.556;9.914;2023-03-14T09:27:30;7.30;;;1.60;;
71606;SDS011;60641;53.556;9.914;2023-03-14T09:29:56;6.70;;;1.20;;
71606;SDS011;60641;53.556;9.914;2023-03-14T09:32:23;8.10;;;1.60;;
71606;SDS011;60641;53.556;9.914;2023-03-14T09:34:49;7.00;;;1.50;;
71606;SDS011;60641;53.556;9.914;2023-03-14T09:37:16;6.50;;;1.40;;
71606;SDS011;60641;53.556;9.914;2023-03-14T09:39:42;7.30;;;1.20;;
71606;SDS011;60641;53.556;9.914;2023-03-14T09:42:12;6.70;;;1.60;;
71606;SDS011;60641;53.556;9.914;2023-03-14T09:44:55;6.10;;;1.60;;
71606;SDS011;60641;53.556;9.914;2023-03-14T09:47:23;8.30;;;1.80;;
71606;SDS011;60641;53.556;9.914;2023-03-14T09:49:50;8.30;;;1.70;;
71606;SDS011;60641;53.556;9.914;2023-03-14T09:52:17;2.70;;;0.60;;
71606;SDS011;60641;53.556;9.914;2023-03-14T09:54:51;1.90;;;0.40;;
71606;SDS011;60641;53.556;9.914;2023-03-14T09:57:38;2.50;;;0.30;;
71606;SDS011;60641;53.556;9.914;2023-03-14T10:00:27;0.80;;;0.30;;
71606;SDS011;60641;53.556;9.914;2023-03-14T10:02:53;3.10;;;0.40;;
71606;SDS011;60641;53.556;9.914;2023-03-14T10:05:22;1.30;;;0.30;;
71606;SDS011;60641;53.556;9.914;2023-03-14T10:07:50;3.20;;;0.50;;
71606;SDS011;60641;53.556;9.914;2023-03-14T10:10:18;4.50;;;0.50;;
71606;SDS011;60641;53.556;9.914;2023-03-14T10:12:55;3.00;;;0.40;;
71606;SDS011;60641;53.556;9.914;2023-03-14T10:15:32;1.80;;;0.30;;
71606;SDS011;60641;53.556;9.914;2023-03-14T10:18:00;1.90;;;0.30;;
71606;SDS011;60641;53.556;9.914;2023-03-14T10:20:35;1.20;;;0.30;;
71606;SDS011;60641;53.556;9.914;2023-03-14T10:23:17;2.40;;;0.40;;
71606;SDS011;60641;53.556;9.914;2023-03-14T10:25:57;5.10;;;0.80;;
71606;SDS011;60641;53.556;9.914;2023-03-14T10:28:27;2.40;;;0.40;;
71606;SDS011;60641;53.556;9.914;2023-03-14T10:30:55;4.20;;;0.70;;
71606;SDS011;60641;53.556;9.914;2023-03-14T10:33:29;2.50;;;0.50;;
71606;SDS011;60641;53.556;9.914;2023-03-14T10:38:47;1.10;;;0.30;;
71606;SDS011;60641;53.556;9.914;2023-03-14T10:41:15;2.00;;;0.40;;
71606;SDS011;60641;53.556;9.914;2023-03-14T10:43:43;0.50;;;0.20;;
71606;SDS011;60641;53.556;9.914;2023-03-14T10:46:17;1.50;;;0.20;;
71606;SDS011;60641;53.556;9.914;2023-03-14T10:48:44;1.40;;;0.20;;
71606;SDS011;60641;53.556;9.914;2023-03-14T10:54:03;0.40;;;0.10;;
71606;SDS011;60641;53.556;9.914;2023-03-14T10:56:39;1.70;;;0.20;;
71606;SDS011;60641;53.556;9.914;2023-03-14T10:59:12;1.80;;;0.20;;
71606;SDS011;60641;53.556;9.914;2023-03-14T11:05:15;2.50;;;0.20;;
71606;SDS011;60641;53.556;9.914;2023-03-14T11:08:01;0.30;;;0.10;;
71606;SDS011;60641;53.556;9.914;2023-03-14T11:10:34;1.30;;;0.20;;
71606;SDS011;60641;53.556;9.914;2023-03-14T11:13:11;2.80;;;0.20;;
71606;SDS011;60641;53.556;9.914;2023-03-14T11:21:22;1.60;;;0.30;;
71606;SDS011;60641;53.556;9.914;2023-03-14T11:29:41;3.30;;;0.40;;
71606;SDS011;60641;53.556;9.914;2023-03-14T11:32:24;2.40;;;0.30;;
71606;SDS011;60641;53.556;9.914;2023-03-14T11:35:00;2.50;;;0.30;;
71606;SDS011;60641;53.556;9.914;2023-03-14T11:37:34;2.90;;;0.40;;
71606;SDS011;60641;53.556;9.914;2023-03-14T11:40:10;2.80;;;0.30;;
71606;SDS011;60641;53.556;9.914;2023-03-14T11:42:41;1.30;;;0.20;;
71606;SDS011;60641;53.556;9.914;2023-03-14T11:45:19;2.60;;;0.40;;
71606;SDS011;60641;53.556;9.914;2023-03-14T11:48:05;3.20;;;0.40;;
71606;SDS011;60641;53.556;9.914;2023-03-14T11:50:33;4.70;;;0.40;;
71606;SDS011;60641;53.556;9.914;2023-03-14T11:53:10;3.60;;;0.50;;
71606;SDS011;60641;53.556;9.914;2023-03-14T11:55:40;3.20;;;0.40;;
71606;SDS011;60641;53.556;9.914;2023-03-14T11:58:16;6.20;;;0.40;;
71606;SDS011;60641;53.556;9.914;2023-03-14T12:00:46;2.10;;;0.30;;
71606;SDS011;60641;53.556;9.914;2023-03-14T12:03:17;5.30;;;0.50;;
71606;SDS011;60641;53.556;9.914;2023-03-14T12:10:52;7.00;;;0.60;;
71606;SDS011;60641;53.556;9.914;2023-03-14T12:13:27;8.20;;;0.70;;
71606;SDS011;60641;53.556;9.914;2023-03-14T12:15:57;5.30;;;0.50;;
71606;SDS011;60641;53.556;9.914;2023-03-14T12:18:29;6.80;;;0.60;;
71606;SDS011;60641;53.556;9.914;2023-03-14T12:21:04;6.20;;;0.70;;
71606;SDS011;60641;53.556;9.914;2023-03-14T12:23:37;3.90;;;0.30;;
71606;SDS011;60641;53.556;9.914;2023-03-14T12:28:42;8.30;;;0.60;;
71606;SDS011;60641;53.556;9.914;2023-03-14T12:42:04;4.70;;;0.60;;
71606;SDS011;60641;53.556;9.914;2023-03-14T12:46:57;8.00;;;0.80;;
71606;SDS011;60641;53.556;9.914;2023-03-14T12:49:43;8.90;;;0.70;;
71606;SDS011;60641;53.556;9.914;2023-03-14T12:55:15;4.40;;;0.70;;
71606;SDS011;60641;53.556;9.914;2023-03-14T13:00:31;6.30;;;0.70;;
71606;SDS011;60641;53.556;9.914;2023-03-14T13:03:03;6.20;;;0.70;;
71606;SDS011;60641;53.556;9.914;2023-03-14T13:05:50;6.10;;;0.80;;
71606;SDS011;60641;53.556;9.914;2023-03-14T13:08:41;9.10;;;0.80;;
71606;SDS011;60641;53.556;9.914;2023-03-14T13:11:20;10.70;;;0.80;;
71606;SDS011;60641;53.556;9.914;2023-03-14T13:13:48;7.50;;;0.80;;
71606;SDS011;60641;53.556;9.914;2023-03-14T13:16:19;10.10;;;1.70;;
71606;SDS011;60641;53.556;9.914;2023-03-14T13:18:50;10.00;;;0.90;;
71606;SDS011;60641;53.556;9.914;2023-03-14T13:21:25;8.00;;;0.90;;
71606;SDS011;60641;53.556;9.914;2023-03-14T13:24:00;9.30;;;0.80;;
71606;SDS011;60641;53.556;9.914;2023-03-14T13:26:37;13.30;;;1.60;;
71606;SDS011;60641;53.556;9.914;2023-03-14T13:29:10;8.70;;;0.90;;
71606;SDS011;60641;53.556;9.914;2023-03-14T13:31:45;7.70;;;1.10;;
71606;SDS011;60641;53.556;9.914;2023-03-14T13:34:12;9.00;;;0.70;;
71606;SDS011;60641;53.556;9.914;2023-03-14T13:36:39;4.80;;;0.70;;
71606;SDS011;60641;53.556;9.914;2023-03-14T13:39:09;5.80;;;0.70;;
71606;SDS011;60641;53.556;9.914;2023-03-14T13:41:39;6.30;;;0.70;;
71606;SDS011;60641;53.556;9.914;2023-03-14T13:44:07;7.60;;;0.60;;
71606;SDS011;60641;53.556;9.914;2023-03-14T13:46:35;8.60;;;0.70;;
71606;SDS011;60641;53.556;9.914;2023-03-14T13:49:03;10.40;;;0.80;;
71606;SDS011;60641;53.556;9.914;2023-03-14T13:51:31;10.30;;;1.30;;
71606;SDS011;60641;53.556;9.914;2023-03-14T13:54:01;8.80;;;0.90;;
71606;SDS011;60641;53.556;9.914;2023-03-14T13:56:31;6.50;;;0.70;;
71606;SDS011;60641;53.556;9.914;2023-03-14T13:58:58;7.70;;;0.80;;
71606;SDS011;60641;53.556;9.914;2023-03-14T14:01:29;8.30;;;1.00;;
71606;SDS011;60641;53.556;9.914;2023-03-14T14:03:58;5.10;;;0.70;;
71606;SDS011;60641;53.556;9.914;2023-03-14T14:06:32;9.70;;;1.50;;
71606;SDS011;60641;53.556;9.914;2023-03-14T14:09:10;10.60;;;0.90;;
71606;SDS011;60641;53.556;9.914;2023-03-14T14:11:41;12.20;;;1.00;;
71606;SDS011;60641;53.556;9.914;2023-03-14T14:14:28;12.90;;;1.60;;
71606;SDS011;60641;53.556;9.914;2023-03-14T14:17:03;6.90;;;0.70;;
71606;SDS011;60641;53.556;9.914;2023-03-14T14:19:32;8.20;;;0.90;;
71606;SDS011;60641;53.556;9.914;2023-03-14T14:22:00;6.30;;;0.50;;
71606;SDS011;60641;53.556;9.914;2023-03-14T14:24:30;4.00;;;0.50;;
71606;SDS011;60641;53.556;9.914;2023-03-14T14:27:02;6.00;;;0.60;;
71606;SDS011;60641;53.556;9.914;2023-03-14T14:29:34;9.20;;;0.90;;
71606;SDS011;60641;53.556;9.914;2023-03-14T14:37:28;10.60;;;0.80;;
71606;SDS011;60641;53.556;9.914;2023-03-14T14:40:07;5.60;;;0.90;;
71606;SDS011;60641;53.556;9.914;2023-03-14T14:42:39;9.40;;;0.90;;
71606;SDS011;60641;53.556;9.914;2023-03-14T14:45:09;5.80;;;0.60;;
71606;SDS011;60641;53.556;9.914;2023-03-14T14:50:31;6.40;;;0.50;;
71606;SDS011;60641;53.556;9.914;2023-03-14T14:52:58;4.30;;;0.70;;
71606;SDS011;60641;53.556;9.914;2023-03-14T14:55:33;6.20;;;0.60;;
71606;SDS011;60641;53.556;9.914;2023-03-14T15:03:34;6.10;;;0.70;;
71606;SDS011;60641;53.556;9.914;2023-03-14T15:06:02;6.30;;;0.80;;
71606;SDS011;60641;53.556;9.914;2023-03-14T15:08:29;6.00;;;0.70;;
71606;SDS011;60641;53.556;9.914;2023-03-14T15:10:56;5.70;;;0.90;;
71606;SDS011;60641;53.556;9.914;2023-03-14T15:13:23;6.30;;;0.70;;
71606;SDS011;60641;53.556;9.914;2023-03-14T15:15:50;7.10;;;0.70;;
71606;SDS011;60641;53.556;9.914;2023-03-14T15:18:22;13.50;;;1.10;;
71606;SDS011;60641;53.556;9.914;2023-03-14T15:20:50;5.60;;;0.70;;
71606;SDS011;60641;53.556;9.914;2023-03-14T15:23:18;5.20;;;0.60;;
71606;SDS011;60641;53.556;9.914;2023-03-14T15:25:46;11.90;;;1.00;;
71606;SDS011;60641;53.556;9.914;2023-03-14T15:28:14;7.60;;;0.80;;
71606;SDS011;60641;53.556;9.914;2023-03-14T15:30:41;8.40;;;0.90;;
71606;SDS011;60641;53.556;9.914;2023-03-14T15:33:08;9.70;;;0.70;;
71606;SDS011;60641;53.556;9.914;2023-03-14T15:35:36;10.60;;;0.80;;
71606;SDS011;60641;53.556;9.914;2023-03-14T15:38:03;6.70;;;0.50;;
71606;SDS011;60641;53.556;9.914;2023-03-14T15:40:30;11.00;;;0.80;;
71606;SDS011;60641;53.556;9.914;2023-03-14T15:42:56;7.00;;;0.90;;
71606;SDS011;60641;53.556;9.914;2023-03-14T15:45:23;12.50;;;0.90;;
71606;SDS011;60641;53.556;9.914;2023-03-14T15:47:49;11.10;;;0.80;;
71606;SDS011;60641;53.556;9.914;2023-03-14T15:50:16;6.60;;;0.90;;
71606;SDS011;60641;53.556;9.914;2023-03-14T15:52:43;7.30;;;0.70;;
71606;SDS011;60641;53.556;9.914;2023-03-14T15:55:09;10.00;;;1.00;;
71606;SDS011;60641;53.556;9.914;2023-03-14T15:57:36;10.10;;;0.90;;
71606;SDS011;60641;53.556;9.914;2023-03-14T16:00:03;6.70;;;0.70;;
71606;SDS011;60641;53.556;9.914;2023-03-14T16:02:32;8.30;;;0.80;;
71606;SDS011;60641;53.556;9.914;2023-03-14T16:04:59;8.60;;;0.70;;